Time;durP1;ratioP1;P1;durP2;ratioP2;P2;SDS_P1;SDS_P2;PMS_P1;PMS_P2;Temp;Humidity;BMP_temperature;BMP_pressure;BME280_temperature;BME280_humidity;BME280_pressure;Samples;Min_cycle;Max_cycle;Signal;HPM_P1;HPM_P2
2021/10/07 00:02:15;;;;;;;2.27;2.10;;;11.40;63.30;;;;;;5050478;28;20426;-85
2021/10/07 00:04:41;;;;;;;2.33;2.23;;;11.40;64.20;;;;;;5050508;28;20193;-86
2021/10/07 00:07:06;;;;;;;2.57;2.30;;;11.40;63.40;;;;;;5050718;28;20465;-86
2021/10/07 00:09:32;;;;;;;1.90;1.80;;;11.50;63.80;;;;;;5050768;28;20201;-85
2021/10/07 00:12:00;;;;;;;4.10;2.10;;;11.40;62.90;;;;;;5050390;28;20176;-86
2021/10/07 00:14:26;;;;;;;3.13;1.90;;;11.40;63.20;;;;;;5050930;28;20410;-86
2021/10/07 00:16:52;;;;;;;2.70;2.10;;;11.40;62.90;;;;;;5050422;28;20796;-86
2021/10/07 00:19:18;;;;;;;2.50;2.30;;;11.50;62.70;;;;;;5050928;28;20414;-86
2021/10/07 00:21:44;;;;;;;2.10;2.00;;;11.50;63.00;;;;;;5053581;28;20443;-86
2021/10/07 00:24:11;;;;;;;2.50;2.30;;;11.50;62.80;;;;;;5053848;28;20654;-86
2021/10/07 00:26:39;;;;;;;2.63;1.83;;;11.40;62.70;;;;;;5054302;28;20176;-86
2021/10/07 00:31:53;;;;;;;2.30;2.20;;;11.40;63.00;;;;;;5055614;28;20441;-86
2021/10/07 00:39:13;;;;;;;3.70;2.50;;;11.50;63.10;;;;;;5057336;28;20549;-86
2021/10/07 00:41:41;;;;;;;2.23;2.03;;;11.50;63.60;;;;;;5055146;28;20406;-86
2021/10/07 00:44:08;;;;;;;2.00;1.73;;;11.40;63.60;;;;;;5053921;28;20624;-86
2021/10/07 00:46:58;;;;;;;2.00;1.90;;;11.40;63.00;;;;;;5053581;28;20857;-86
2021/10/07 00:49:23;;;;;;;2.07;1.90;;;11.40;63.50;;;;;;5053859;28;20434;-86
2021/10/07 00:51:50;;;;;;;2.87;2.37;;;11.40;63.30;;;;;;5054551;28;20448;-86
2021/10/07 00:54:20;;;;;;;2.00;1.90;;;11.40;63.30;;;;;;5053080;28;20207;-86
2021/10/07 00:56:47;;;;;;;2.40;2.20;;;11.40;63.40;;;;;;5053106;28;20414;-87
2021/10/07 00:59:13;;;;;;;2.80;2.60;;;11.40;63.90;;;;;;5053186;28;20410;-86
2021/10/07 01:01:39;;;;;;;2.37;2.17;;;11.30;63.80;;;;;;5053189;28;20402;-85
2021/10/07 01:04:05;;;;;;;2.30;2.10;;;11.40;63.50;;;;;;5053367;28;20737;-85
2021/10/07 01:06:31;;;;;;;2.07;1.97;;;11.40;64.20;;;;;;5052909;28;20406;-86
2021/10/07 01:08:57;;;;;;;2.10;2.00;;;11.40;64.60;;;;;;5053514;28;20423;-86
2021/10/07 01:11:23;;;;;;;1.70;1.60;;;11.40;65.00;;;;;;5053124;28;20915;-86
2021/10/07 01:13:49;;;;;;;1.97;1.87;;;11.40;64.70;;;;;;5053221;28;20549;-83
2021/10/07 01:16:16;;;;;;;2.30;2.10;;;11.40;64.70;;;;;;5052654;28;20199;-82
2021/10/07 01:18:45;;;;;;;2.83;1.90;;;11.40;64.80;;;;;;5052705;28;20172;-83
2021/10/07 01:21:13;;;;;;;2.13;2.00;;;11.40;64.90;;;;;;5052375;28;20784;-83
2021/10/07 01:23:43;;;;;;;2.20;2.00;;;11.50;64.80;;;;;;5052718;28;20415;-83
2021/10/07 01:26:10;;;;;;;1.77;1.67;;;11.50;65.10;;;;;;5052517;28;20475;-83
2021/10/07 01:28:41;;;;;;;1.90;1.80;;;11.50;64.20;;;;;;5052415;28;20497;-83
2021/10/07 01:31:07;;;;;;;3.33;2.40;;;11.50;64.50;;;;;;5052204;28;20775;-83
2021/10/07 01:33:33;;;;;;;1.93;1.80;;;11.50;64.10;;;;;;5051530;28;20515;-82
2021/10/07 01:36:02;;;;;;;3.70;2.20;;;11.50;64.00;;;;;;5052394;28;20409;-83
2021/10/07 01:38:28;;;;;;;2.50;2.23;;;11.50;64.40;;;;;;5052255;28;20426;-83
2021/10/07 01:40:54;;;;;;;3.23;2.07;;;11.40;63.90;;;;;;5052335;28;20505;-83
2021/10/07 01:43:20;;;;;;;2.03;1.93;;;11.50;64.30;;;;;;5052167;28;20418;-83
2021/10/07 01:45:47;;;;;;;2.33;2.23;;;11.50;63.90;;;;;;5052331;28;20430;-83
2021/10/07 01:48:13;;;;;;;2.70;2.40;;;11.40;63.70;;;;;;5051708;28;20403;-84
2021/10/07 01:50:39;;;;;;;2.20;2.10;;;11.40;63.90;;;;;;5051972;28;20419;-84
2021/10/07 01:53:04;;;;;;;1.83;1.73;;;11.40;64.30;;;;;;5051998;28;20489;-84
2021/10/07 01:55:30;;;;;;;3.03;2.10;;;11.40;64.20;;;;;;5052045;28;20816;-83
2021/10/07 01:57:56;;;;;;;2.60;2.33;;;11.40;63.60;;;;;;5051759;28;20172;-82
2021/10/07 02:00:22;;;;;;;2.50;2.20;;;11.40;64.00;;;;;;5052207;28;20407;-83
2021/10/07 02:02:47;;;;;;;2.17;1.97;;;11.40;63.90;;;;;;5051538;28;20175;-83
2021/10/07 02:05:14;;;;;;;3.00;2.90;;;11.50;64.30;;;;;;5052009;28;20211;-83
2021/10/07 02:07:39;;;;;;;2.23;2.13;;;11.50;64.00;;;;;;5051892;28;20539;-84
2021/10/07 02:10:12;;;;;;;2.40;2.20;;;11.50;64.30;;;;;;5051793;28;20414;-83
2021/10/07 02:12:38;;;;;;;2.63;2.43;;;11.50;63.60;;;;;;5051703;28;20287;-83
2021/10/07 02:15:05;;;;;;;2.50;2.30;;;11.50;64.20;;;;;;5051627;28;20508;-83
2021/10/07 02:17:31;;;;;;;2.27;2.07;;;11.40;64.00;;;;;;5050942;28;20421;-83
2021/10/07 02:19:57;;;;;;;3.80;2.30;;;11.40;64.30;;;;;;5051587;28;20926;-82
2021/10/07 02:22:22;;;;;;;2.20;2.00;;;11.40;64.90;;;;;;5051291;28;20208;-82
2021/10/07 02:24:48;;;;;;;2.20;2.10;;;11.50;64.30;;;;;;5051465;28;20183;-82
2021/10/07 02:27:14;;;;;;;2.60;2.03;;;11.50;63.60;;;;;;5051043;28;20176;-83
2021/10/07 02:29:39;;;;;;;2.77;2.50;;;11.50;64.40;;;;;;5051395;28;20230;-82
2021/10/07 02:32:05;;;;;;;2.93;2.70;;;11.40;64.50;;;;;;5051001;28;20238;-83
2021/10/07 02:34:31;;;;;;;2.60;2.40;;;11.40;64.90;;;;;;5051330;28;20180;-82
2021/10/07 02:36:56;;;;;;;2.57;2.43;;;11.40;64.90;;;;;;5051149;28;20414;-82
2021/10/07 02:39:22;;;;;;;2.20;2.10;;;11.40;65.00;;;;;;5051491;28;20655;-83
2021/10/07 02:41:48;;;;;;;3.00;2.40;;;11.40;65.00;;;;;;5051171;28;20225;-83
2021/10/07 02:44:13;;;;;;;2.33;2.23;;;11.40;65.60;;;;;;5051200;28;20187;-83
2021/10/07 02:46:39;;;;;;;2.20;2.10;;;11.40;65.40;;;;;;5050682;28;20191;-83
2021/10/07 02:49:05;;;;;;;4.30;2.00;;;11.30;65.30;;;;;;5051314;28;20176;-83
2021/10/07 02:51:31;;;;;;;2.07;1.97;;;11.30;65.80;;;;;;5051421;28;20176;-82
2021/10/07 02:53:56;;;;;;;2.13;1.93;;;11.30;65.60;;;;;;5051161;28;20458;-83
2021/10/07 02:56:22;;;;;;;2.60;2.37;;;11.30;65.80;;;;;;5051565;28;20418;-86
2021/10/07 02:58:48;;;;;;;2.87;2.70;;;11.30;66.10;;;;;;5051743;28;20191;-86
2021/10/07 03:01:13;;;;;;;2.80;2.57;;;11.30;66.00;;;;;;5051184;28;20219;-86
2021/10/07 03:03:39;;;;;;;2.50;2.17;;;11.30;65.60;;;;;;5051541;28;20271;-86
2021/10/07 03:06:05;;;;;;;2.27;2.17;;;11.30;66.40;;;;;;5051440;28;20270;-87
2021/10/07 03:08:30;;;;;;;2.30;2.10;;;11.30;66.30;;;;;;5051207;28;20187;-87
2021/10/07 03:10:57;;;;;;;3.93;2.00;;;11.30;66.20;;;;;;5053924;28;20180;-87
2021/10/07 03:13:23;;;;;;;2.53;2.30;;;11.30;65.80;;;;;;5052536;28;20199;-84
2021/10/07 03:15:49;;;;;;;2.20;1.80;;;11.30;66.30;;;;;;5051186;28;20419;-85
2021/10/07 03:18:15;;;;;;;2.70;2.50;;;11.30;66.10;;;;;;5050747;28;20914;-86
2021/10/07 03:20:40;;;;;;;3.80;2.50;;;11.30;66.10;;;;;;5051100;28;20180;-85
2021/10/07 03:23:06;;;;;;;2.13;2.00;;;11.30;65.60;;;;;;5052234;28;20418;-85
2021/10/07 03:25:32;;;;;;;2.30;2.20;;;11.30;66.00;;;;;;5050739;28;20555;-86
2021/10/07 03:27:57;;;;;;;2.30;2.00;;;11.30;66.60;;;;;;5050642;28;20184;-84
2021/10/07 03:30:23;;;;;;;2.10;2.00;;;11.30;66.30;;;;;;5050550;28;20191;-85
2021/10/07 03:32:49;;;;;;;2.70;2.50;;;11.30;66.20;;;;;;5052136;28;20203;-84
2021/10/07 03:35:14;;;;;;;2.70;2.50;;;11.30;66.30;;;;;;5050741;28;20222;-86
2021/10/07 03:37:40;;;;;;;2.77;2.60;;;11.30;65.70;;;;;;5050776;28;20247;-86
2021/10/07 03:40:08;;;;;;;2.30;2.10;;;11.30;67.20;;;;;;5050603;28;20183;-86
2021/10/07 03:42:33;;;;;;;3.27;2.87;;;11.30;67.40;;;;;;5051871;28;20191;-86
2021/10/07 03:45:02;;;;;;;5.37;2.90;;;11.20;66.80;;;;;;5050373;28;20797;-86
2021/10/07 03:47:29;;;;;;;2.77;2.57;;;11.30;67.40;;;;;;5050498;28;20184;-86
2021/10/07 03:49:57;;;;;;;3.17;2.83;;;11.30;66.50;;;;;;5050719;28;20421;-86
2021/10/07 03:52:26;;;;;;;4.23;3.83;;;11.20;66.10;;;;;;5050446;28;20458;-86
2021/10/07 03:54:53;;;;;;;3.23;2.50;;;11.30;66.20;;;;;;5050976;28;20414;-86
2021/10/07 03:57:19;;;;;;;4.73;2.40;;;11.30;66.40;;;;;;5053886;28;20421;-86
2021/10/07 03:59:44;;;;;;;4.73;2.70;;;11.40;66.10;;;;;;5054216;28;20872;-86
2021/10/07 04:02:10;;;;;;;2.60;2.40;;;11.40;65.80;;;;;;5054195;28;20179;-86
2021/10/07 04:04:36;;;;;;;2.03;1.93;;;11.30;66.10;;;;;;5054266;28;20172;-86
2021/10/07 04:07:02;;;;;;;4.40;2.30;;;11.30;66.00;;;;;;5054007;28;20545;-86
2021/10/07 04:09:27;;;;;;;5.20;2.17;;;11.30;66.20;;;;;;5054264;28;20626;-86
2021/10/07 04:11:53;;;;;;;4.43;2.33;;;11.30;65.80;;;;;;5053811;28;20468;-86
2021/10/07 04:14:19;;;;;;;2.80;2.60;;;11.30;65.90;;;;;;5055275;28;21171;-86
2021/10/07 04:16:44;;;;;;;2.30;2.20;;;11.30;66.60;;;;;;5054091;28;20172;-86
2021/10/07 04:19:10;;;;;;;2.67;2.57;;;11.20;66.40;;;;;;5053935;28;20222;-86
2021/10/07 04:21:36;;;;;;;2.50;2.40;;;11.30;67.00;;;;;;5055120;28;20174;-86
2021/10/07 04:24:01;;;;;;;2.53;2.33;;;11.30;66.40;;;;;;5054070;28;20176;-85
2021/10/07 04:26:29;;;;;;;4.30;2.80;;;11.30;66.70;;;;;;5053994;28;20172;-85
2021/10/07 04:28:55;;;;;;;2.60;2.40;;;11.30;67.40;;;;;;5053389;28;20550;-86
2021/10/07 04:31:21;;;;;;;2.63;2.53;;;11.20;66.30;;;;;;5053798;28;20434;-86
2021/10/07 04:33:46;;;;;;;2.43;2.33;;;11.20;66.60;;;;;;5053501;28;20769;-85
2021/10/07 04:36:12;;;;;;;2.40;2.20;;;11.20;66.10;;;;;;5053867;28;20179;-86
2021/10/07 04:38:39;;;;;;;2.43;2.20;;;11.30;66.20;;;;;;5053345;28;20180;-86
2021/10/07 04:41:05;;;;;;;3.30;2.73;;;11.30;65.80;;;;;;5053355;28;20593;-86
2021/10/07 04:43:30;;;;;;;4.17;3.77;;;11.30;66.30;;;;;;5053245;28;20429;-86
2021/10/07 04:45:56;;;;;;;5.23;2.47;;;11.20;66.20;;;;;;5053568;28;20172;-86
2021/10/07 04:48:22;;;;;;;2.97;2.77;;;11.30;66.00;;;;;;5052829;28;20270;-86
2021/10/07 04:50:47;;;;;;;2.60;2.40;;;11.30;66.10;;;;;;5053295;28;20406;-86
2021/10/07 04:53:14;;;;;;;5.60;2.93;;;11.30;65.00;;;;;;5053335;28;20238;-86
2021/10/07 04:55:40;;;;;;;2.50;2.40;;;11.30;65.10;;;;;;5053147;28;20172;-86
2021/10/07 04:58:06;;;;;;;2.37;2.17;;;11.40;64.70;;;;;;5052570;28;20483;-86
2021/10/07 05:00:31;;;;;;;2.73;2.60;;;11.30;65.30;;;;;;5053376;28;20320;-86
2021/10/07 05:02:57;;;;;;;2.47;2.20;;;11.30;65.90;;;;;;5053267;28;20183;-86
2021/10/07 05:05:23;;;;;;;3.00;2.50;;;11.30;65.70;;;;;;5053247;28;20591;-86
2021/10/07 05:07:48;;;;;;;2.33;2.23;;;11.40;66.40;;;;;;5052669;28;20180;-86
2021/10/07 05:10:14;;;;;;;5.90;2.73;;;11.30;66.00;;;;;;5053112;28;20188;-85
2021/10/07 05:12:40;;;;;;;3.50;2.60;;;11.40;65.00;;;;;;5053005;28;20207;-85
2021/10/07 05:15:07;;;;;;;5.90;2.80;;;11.30;65.30;;;;;;5052750;28;20168;-86
2021/10/07 05:17:33;;;;;;;2.77;2.57;;;11.30;65.90;;;;;;5052680;28;20421;-85
2021/10/07 05:19:58;;;;;;;2.57;2.37;;;11.30;65.70;;;;;;5053193;28;20411;-86
2021/10/07 05:22:24;;;;;;;2.47;2.37;;;11.30;65.40;;;;;;5054030;28;20557;-86
2021/10/07 05:24:50;;;;;;;5.53;2.57;;;11.30;65.20;;;;;;5052763;28;20178;-86
2021/10/07 05:27:15;;;;;;;3.30;2.60;;;11.40;65.40;;;;;;5052410;28;20211;-86
2021/10/07 05:29:41;;;;;;;3.90;3.40;;;11.40;65.50;;;;;;5052539;28;20632;-86
2021/10/07 05:32:07;;;;;;;3.57;2.80;;;11.40;64.90;;;;;;5052507;28;20562;-86
2021/10/07 05:34:33;;;;;;;3.30;3.00;;;11.40;64.70;;;;;;5053724;28;20731;-86
2021/10/07 05:36:58;;;;;;;4.30;2.60;;;11.40;64.90;;;;;;5052378;28;20176;-86
2021/10/07 05:39:24;;;;;;;3.77;3.20;;;11.40;63.00;;;;;;5054020;28;20898;-86
2021/10/07 05:41:49;;;;;;;3.30;2.47;;;11.30;64.30;;;;;;5052276;28;20168;-86
2021/10/07 05:44:15;;;;;;;2.90;2.70;;;11.30;64.50;;;;;;5052433;28;20205;-86
2021/10/07 05:46:41;;;;;;;5.10;2.80;;;11.40;64.70;;;;;;5052423;28;20215;-85
2021/10/07 05:49:07;;;;;;;3.17;2.90;;;11.40;64.50;;;;;;5052425;28;20264;-85
2021/10/07 05:51:33;;;;;;;2.20;2.07;;;11.40;64.50;;;;;;5052138;28;20172;-85
2021/10/07 05:53:59;;;;;;;3.13;2.57;;;11.40;63.80;;;;;;5051853;28;20454;-86
2021/10/07 05:56:25;;;;;;;2.73;2.50;;;11.40;63.80;;;;;;5051811;28;20906;-87
2021/10/07 05:58:50;;;;;;;2.30;2.20;;;11.40;64.30;;;;;;5051782;28;20557;-86
2021/10/07 06:01:17;;;;;;;3.43;3.00;;;11.40;64.50;;;;;;5052081;28;20263;-86
2021/10/07 06:03:42;;;;;;;3.20;3.00;;;11.40;64.80;;;;;;5053170;28;20226;-86
2021/10/07 06:06:08;;;;;;;3.50;3.00;;;11.40;64.50;;;;;;5051768;28;20421;-85
2021/10/07 06:08:34;;;;;;;5.20;3.07;;;11.40;63.70;;;;;;5051370;28;20603;-85
2021/10/07 06:10:59;;;;;;;3.07;2.87;;;11.40;63.40;;;;;;5051886;28;20207;-86
2021/10/07 06:13:25;;;;;;;3.37;3.17;;;11.40;64.30;;;;;;5051549;28;20227;-86
2021/10/07 06:15:51;;;;;;;3.73;3.43;;;11.40;64.70;;;;;;5051782;28;20226;-84
2021/10/07 06:18:17;;;;;;;3.67;3.13;;;11.40;63.90;;;;;;5050868;28;20436;-86
2021/10/07 06:20:43;;;;;;;3.40;3.10;;;11.50;64.10;;;;;;5051647;28;20589;-85
2021/10/07 06:23:09;;;;;;;3.50;3.30;;;11.40;64.60;;;;;;5051273;28;20479;-86
2021/10/07 06:25:36;;;;;;;3.07;2.77;;;11.50;63.70;;;;;;5051423;28;20418;-87
2021/10/07 06:28:04;;;;;;;3.60;3.30;;;11.50;63.50;;;;;;5051174;28;20338;-87
2021/10/07 06:30:30;;;;;;;3.33;2.93;;;11.50;61.60;;;;;;5051588;28;20426;-87
2021/10/07 06:32:57;;;;;;;5.07;2.90;;;11.50;62.40;;;;;;5051144;28;20450;-87
2021/10/07 06:35:23;;;;;;;3.63;3.33;;;11.60;60.50;;;;;;5051479;28;20547;-87
2021/10/07 06:37:49;;;;;;;3.30;3.03;;;11.60;61.60;;;;;;5050863;28;20933;-86
2021/10/07 06:40:15;;;;;;;3.13;2.93;;;11.60;61.50;;;;;;5051396;28;20493;-86
2021/10/07 06:42:41;;;;;;;3.50;3.23;;;11.60;62.10;;;;;;5051154;28;20457;-85
2021/10/07 06:45:08;;;;;;;3.70;3.40;;;11.60;61.40;;;;;;5051276;28;20417;-85
2021/10/07 06:47:33;;;;;;;4.10;3.80;;;11.60;61.20;;;;;;5050811;28;20414;-85
2021/10/07 06:50:00;;;;;;;3.90;3.40;;;11.60;61.80;;;;;;5051595;28;20425;-85
2021/10/07 06:52:26;;;;;;;3.47;3.10;;;11.60;61.60;;;;;;5051203;28;20487;-86
2021/10/07 06:54:51;;;;;;;3.27;3.07;;;11.60;61.70;;;;;;5051665;28;20922;-86
2021/10/07 06:57:17;;;;;;;3.33;3.13;;;11.60;61.20;;;;;;5051373;28;20172;-86
2021/10/07 06:59:43;;;;;;;6.37;3.80;;;11.60;61.80;;;;;;5051112;28;20647;-87
2021/10/07 07:02:08;;;;;;;4.03;3.70;;;11.60;61.90;;;;;;5051167;28;20172;-86
2021/10/07 07:04:34;;;;;;;7.13;4.27;;;11.60;60.80;;;;;;5050972;28;20266;-86
2021/10/07 07:07:00;;;;;;;4.87;3.47;;;11.60;60.50;;;;;;5050445;28;20180;-86
2021/10/07 07:09:25;;;;;;;4.17;3.77;;;11.70;61.20;;;;;;5050769;28;20268;-86
2021/10/07 07:11:51;;;;;;;3.67;3.47;;;11.70;62.10;;;;;;5050842;28;20205;-85
2021/10/07 07:14:17;;;;;;;3.60;3.40;;;11.80;61.60;;;;;;5051030;28;20579;-85
2021/10/07 07:16:43;;;;;;;6.83;4.20;;;11.70;61.20;;;;;;5050825;28;20909;-86
2021/10/07 07:19:09;;;;;;;4.30;3.37;;;11.70;60.80;;;;;;5050940;28;20452;-85
2021/10/07 07:21:35;;;;;;;4.13;3.87;;;11.80;60.50;;;;;;5051133;28;20172;-85
2021/10/07 07:24:02;;;;;;;4.60;4.20;;;11.80;61.10;;;;;;5050928;28;20199;-86
2021/10/07 07:26:30;;;;;;;4.30;4.00;;;11.80;61.10;;;;;;5051047;28;20418;-85
2021/10/07 07:28:56;;;;;;;5.00;4.43;;;11.80;60.90;;;;;;5050427;28;20502;-86
2021/10/07 07:31:24;;;;;;;4.60;4.20;;;11.70;60.70;;;;;;5053709;28;20521;-86
2021/10/07 07:33:50;;;;;;;4.77;4.37;;;11.70;60.70;;;;;;5055238;28;20458;-86
2021/10/07 07:36:21;;;;;;;6.33;5.57;;;11.70;60.70;;;;;;5054881;28;20779;-86
2021/10/07 07:38:47;;;;;;;4.77;4.37;;;11.70;61.00;;;;;;5054545;28;20410;-86
2021/10/07 07:41:13;;;;;;;4.83;4.07;;;11.70;61.70;;;;;;5054780;28;20425;-86
2021/10/07 07:43:39;;;;;;;6.47;4.20;;;11.80;61.40;;;;;;5054507;28;20652;-85
2021/10/07 07:46:06;;;;;;;9.90;5.23;;;11.80;61.20;;;;;;5054668;28;20899;-86
2021/10/07 07:48:31;;;;;;;5.40;4.70;;;11.80;61.10;;;;;;5054920;28;20428;-86
2021/10/07 07:50:57;;;;;;;5.10;4.70;;;11.80;61.50;;;;;;5054438;28;20989;-86
2021/10/07 07:53:22;;;;;;;7.80;5.83;;;11.80;62.00;;;;;;5054753;28;20687;-85
2021/10/07 07:55:48;;;;;;;6.20;5.30;;;11.90;60.90;;;;;;5055000;28;20184;-85
2021/10/07 07:58:17;;;;;;;6.10;3.97;;;11.90;61.90;;;;;;5054183;28;20206;-85
2021/10/07 08:00:42;;;;;;;7.53;5.80;;;11.80;61.80;;;;;;5054253;28;20172;-86
2021/10/07 08:03:08;;;;;;;6.53;5.77;;;11.90;62.50;;;;;;5054175;28;20414;-87
2021/10/07 08:05:34;;;;;;;5.30;4.90;;;11.90;61.30;;;;;;5054965;28;20182;-85
2021/10/07 08:08:00;;;;;;;5.90;5.40;;;12.00;61.60;;;;;;5054208;28;20172;-85
2021/10/07 08:10:26;;;;;;;5.67;5.17;;;12.00;62.90;;;;;;5054860;28;20415;-85
2021/10/07 08:12:51;;;;;;;6.13;5.63;;;12.10;61.70;;;;;;5054584;28;20206;-85
2021/10/07 08:15:17;;;;;;;5.73;5.23;;;12.00;61.30;;;;;;5054292;28;20769;-86
2021/10/07 08:17:43;;;;;;;6.60;6.10;;;12.00;62.70;;;;;;5053743;28;20187;-86
2021/10/07 08:20:11;;;;;;;5.77;5.37;;;12.00;60.80;;;;;;5054019;28;20544;-86
2021/10/07 08:22:36;;;;;;;6.10;5.50;;;12.00;60.90;;;;;;5053875;28;20276;-86
2021/10/07 08:25:03;;;;;;;7.27;6.67;;;12.10;60.90;;;;;;5053761;28;20438;-86
2021/10/07 08:27:28;;;;;;;7.70;7.10;;;12.10;59.20;;;;;;5054038;28;20176;-86
2021/10/07 08:29:54;;;;;;;23.67;8.60;;;12.10;60.00;;;;;;5053894;28;20968;-87
2021/10/07 08:32:20;;;;;;;7.60;7.10;;;12.10;60.60;;;;;;5053534;28;20208;-87
2021/10/07 08:34:46;;;;;;;7.17;6.70;;;12.20;60.00;;;;;;5054278;28;20418;-87
2021/10/07 08:37:11;;;;;;;7.07;6.57;;;12.20;59.10;;;;;;5053517;28;20176;-87
2021/10/07 08:39:37;;;;;;;11.53;7.13;;;12.30;58.10;;;;;;5053606;28;20172;-88
2021/10/07 08:42:04;;;;;;;8.00;7.30;;;12.30;57.40;;;;;;5053002;28;20279;-87
2021/10/07 08:44:29;;;;;;;8.07;7.37;;;12.30;58.90;;;;;;5053558;28;20640;-87
2021/10/07 08:46:55;;;;;;;7.80;7.07;;;12.40;58.60;;;;;;5053275;28;20414;-87
2021/10/07 08:49:23;;;;;;;7.73;7.07;;;12.40;58.30;;;;;;5053341;28;20233;-87
2021/10/07 08:51:50;;;;;;;7.40;6.80;;;12.30;58.40;;;;;;5053422;28;20512;-87
2021/10/07 08:54:17;;;;;;;10.17;6.53;;;12.40;58.20;;;;;;5052898;28;20608;-87
2021/10/07 08:56:43;;;;;;;7.80;7.20;;;12.50;59.10;;;;;;5052826;28;20422;-87
2021/10/07 08:59:08;;;;;;;6.73;6.13;;;12.40;57.70;;;;;;5053026;28;20414;-88
2021/10/07 09:01:40;;;;;;;6.57;5.90;;;12.50;58.70;;;;;;5053220;28;20415;-87
2021/10/07 09:04:24;;;;;;;9.20;7.47;;;12.50;57.50;;;;;;5052801;28;20172;-87
2021/10/07 09:06:57;;;;;;;7.50;6.80;;;12.60;58.40;;;;;;5052626;28;20914;-82
2021/10/07 09:09:23;;;;;;;6.23;5.73;;;12.80;57.00;;;;;;5052525;28;20513;-82
2021/10/07 09:11:58;;;;;;;7.27;6.57;;;12.70;57.10;;;;;;5052704;28;20501;-82
2021/10/07 09:14:29;;;;;;;7.37;6.67;;;12.80;56.60;;;;;;5052698;28;20203;-83
2021/10/07 09:16:57;;;;;;;7.87;7.37;;;12.80;56.70;;;;;;5053743;28;20902;-82
2021/10/07 09:19:32;;;;;;;7.80;7.00;;;12.90;57.10;;;;;;5052573;28;20410;-82
2021/10/07 09:22:13;;;;;;;7.23;6.70;;;12.90;56.20;;;;;;5052662;28;20418;-83
2021/10/07 09:24:42;;;;;;;7.47;6.73;;;13.00;54.20;;;;;;5052469;28;20516;-83
2021/10/07 09:27:11;;;;;;;7.60;7.00;;;13.00;54.10;;;;;;5052308;28;20418;-82
2021/10/07 09:29:42;;;;;;;6.43;5.93;;;13.00;54.70;;;;;;5052560;28;20461;-82
2021/10/07 09:32:09;;;;;;;6.53;5.93;;;12.90;54.20;;;;;;5052259;28;20445;-82
2021/10/07 09:34:40;;;;;;;8.30;6.80;;;12.90;54.30;;;;;;5052068;28;20454;-81
2021/10/07 09:37:25;;;;;;;8.27;7.47;;;12.90;54.90;;;;;;5051580;28;20407;-82
2021/10/07 09:39:53;;;;;;;8.83;7.70;;;12.90;55.70;;;;;;5052753;28;20425;-82
2021/10/07 09:42:22;;;;;;;8.80;8.00;;;13.00;55.10;;;;;;5052221;28;20409;-82
2021/10/07 09:45:07;;;;;;;10.10;7.90;;;12.90;55.60;;;;;;5052291;28;20438;-81
2021/10/07 09:47:40;;;;;;;10.47;8.20;;;12.90;56.10;;;;;;5051782;28;20417;-82
2021/10/07 09:50:21;;;;;;;8.70;7.83;;;12.90;55.50;;;;;;5051690;28;20414;-83
2021/10/07 09:52:50;;;;;;;8.97;8.20;;;13.00;55.50;;;;;;5050865;28;20450;-81
2021/10/07 09:55:20;;;;;;;11.70;9.40;;;12.90;54.00;;;;;;5052235;28;20414;-81
2021/10/07 09:57:49;;;;;;;8.90;8.10;;;13.00;54.80;;;;;;5051333;28;20414;-81
2021/10/07 10:00:15;;;;;;;9.53;8.53;;;13.10;54.10;;;;;;5052200;28;20429;-81
2021/10/07 10:02:41;;;;;;;9.47;8.57;;;13.00;54.00;;;;;;5052056;28;20794;-83
2021/10/07 10:05:15;;;;;;;17.87;10.13;;;13.00;54.10;;;;;;5052915;28;20422;-82
2021/10/07 10:07:42;;;;;;;20.47;15.43;;;13.10;54.10;;;;;;5051576;28;20176;-82
2021/10/07 10:10:09;;;;;;;13.60;11.00;;;13.10;53.50;;;;;;5051582;28;20446;-83
2021/10/07 10:12:35;;;;;;;10.70;9.17;;;13.10;54.10;;;;;;5051109;28;20418;-82
2021/10/07 10:15:02;;;;;;;16.90;8.50;;;13.20;54.20;;;;;;5051467;28;20421;-81
2021/10/07 10:17:28;;;;;;;11.63;8.60;;;13.20;54.20;;;;;;5051341;28;20259;-82
2021/10/07 10:19:56;;;;;;;7.80;7.13;;;13.30;53.10;;;;;;5051535;28;20449;-83
2021/10/07 10:22:22;;;;;;;8.57;7.03;;;13.30;52.70;;;;;;5051421;28;20541;-82
2021/10/07 10:24:49;;;;;;;8.10;7.40;;;13.30;52.40;;;;;;5051274;28;20410;-82
2021/10/07 10:27:16;;;;;;;7.77;7.07;;;13.40;53.20;;;;;;5050864;28;20941;-82
2021/10/07 10:29:41;;;;;;;8.57;7.70;;;13.30;53.70;;;;;;5051392;28;20468;-82
2021/10/07 10:32:11;;;;;;;10.03;9.00;;;13.30;53.60;;;;;;5051197;28;20938;-83
2021/10/07 10:34:45;;;;;;;10.90;10.00;;;13.20;55.10;;;;;;5051250;28;20684;-83
2021/10/07 10:37:13;;;;;;;8.87;8.07;;;13.30;54.90;;;;;;5050803;28;20411;-82
2021/10/07 10:39:47;;;;;;;11.00;10.00;;;13.20;55.50;;;;;;5051125;28;20419;-82
2021/10/07 10:42:16;;;;;;;12.03;8.70;;;13.30;55.20;;;;;;5051160;28;20446;-83
2021/10/07 10:44:57;;;;;;;11.83;10.63;;;13.30;55.80;;;;;;5051535;28;20517;-82
2021/10/07 10:47:40;;;;;;;9.53;8.63;;;13.30;55.10;;;;;;5051734;28;20406;-82
2021/10/07 10:50:13;;;;;;;11.60;10.60;;;13.30;54.30;;;;;;5051355;28;20783;-83
2021/10/07 10:52:53;;;;;;;10.23;9.20;;;13.20;54.80;;;;;;5051244;28;20506;-83
2021/10/07 10:55:24;;;;;;;9.83;8.10;;;13.20;54.60;;;;;;5051404;28;20402;-82
2021/10/07 10:57:52;;;;;;;10.73;9.70;;;13.20;54.40;;;;;;5050924;28;20407;-81
2021/10/07 11:00:26;;;;;;;13.93;8.53;;;13.30;54.90;;;;;;5050933;28;20431;-82
2021/10/07 11:02:54;;;;;;;9.67;8.57;;;13.30;54.30;;;;;;5051096;28;20472;-82
2021/10/07 11:05:26;;;;;;;11.57;8.60;;;13.30;53.90;;;;;;5050727;28;20422;-81
2021/10/07 11:08:11;;;;;;;10.00;8.47;;;13.30;53.60;;;;;;5050555;28;20910;-81
2021/10/07 11:10:41;;;;;;;10.10;8.90;;;13.30;54.60;;;;;;5050973;28;20456;-82
2021/10/07 11:13:21;;;;;;;10.33;8.40;;;13.40;54.40;;;;;;5051106;28;20460;-82
2021/10/07 11:15:57;;;;;;;8.70;7.90;;;13.50;54.30;;;;;;5050960;28;20865;-82
2021/10/07 11:18:31;;;;;;;9.13;8.23;;;13.50;54.20;;;;;;5050694;28;20418;-82
2021/10/07 11:20:59;;;;;;;9.93;8.30;;;13.60;53.80;;;;;;5051010;28;20464;-83
2021/10/07 11:23:25;;;;;;;9.87;7.83;;;13.70;53.50;;;;;;5050589;28;20949;-82
2021/10/07 11:25:54;;;;;;;8.50;7.17;;;13.70;53.30;;;;;;5050771;28;20411;-82
2021/10/07 11:28:33;;;;;;;9.90;8.50;;;13.80;53.40;;;;;;5050005;28;20426;-82
2021/10/07 11:31:14;;;;;;;8.67;7.77;;;13.90;52.40;;;;;;5050809;28;20438;-82
2021/10/07 11:33:51;;;;;;;7.40;6.67;;;13.70;52.00;;;;;;5050624;28;20450;-83
2021/10/07 11:36:21;;;;;;;7.60;6.90;;;13.70;52.80;;;;;;5050839;28;20498;-82
2021/10/07 11:38:49;;;;;;;6.93;6.33;;;13.70;51.90;;;;;;5050446;28;20414;-83
2021/10/07 11:41:17;;;;;;;6.83;6.10;;;13.70;51.70;;;;;;5050584;28;20411;-83
2021/10/07 11:43:45;;;;;;;11.93;6.60;;;13.70;51.00;;;;;;5050386;28;20421;-83
2021/10/07 11:46:13;;;;;;;6.47;5.60;;;13.70;50.30;;;;;;5050387;28;20415;-83
2021/10/07 11:48:47;;;;;;;5.57;5.10;;;13.70;50.60;;;;;;5050231;28;20411;-83
2021/10/07 11:51:16;;;;;;;5.90;5.40;;;13.70;51.60;;;;;;5050525;28;20415;-82
2021/10/07 11:53:45;;;;;;;6.40;5.80;;;13.70;50.00;;;;;;5050482;28;20477;-83
2021/10/07 11:56:20;;;;;;;5.47;4.73;;;13.80;50.70;;;;;;5050758;28;20415;-82
2021/10/07 11:58:50;;;;;;;6.57;6.07;;;13.80;50.40;;;;;;5050512;28;20414;-82
2021/10/07 12:01:18;;;;;;;5.60;5.20;;;13.80;49.70;;;;;;5051111;28;20498;-84
2021/10/07 12:03:44;;;;;;;5.93;5.43;;;13.90;49.30;;;;;;5050809;28;20937;-81
2021/10/07 12:06:15;;;;;;;5.50;5.10;;;14.00;48.70;;;;;;5052955;28;20410;-83
2021/10/07 12:08:44;;;;;;;5.90;5.07;;;14.00;49.30;;;;;;5050156;28;20414;-83
2021/10/07 12:11:18;;;;;;;5.47;5.07;;;13.90;49.00;;;;;;5050296;28;20541;-83
2021/10/07 12:13:50;;;;;;;7.10;5.43;;;13.90;49.00;;;;;;5050271;28;20510;-83
2021/10/07 12:16:18;;;;;;;5.10;4.70;;;14.00;49.40;;;;;;5051021;28;20421;-82
2021/10/07 12:18:49;;;;;;;4.90;4.60;;;13.80;48.70;;;;;;5053977;28;20418;-82
2021/10/07 12:21:15;;;;;;;5.37;4.90;;;13.90;49.30;;;;;;5054007;28;20410;-81
2021/10/07 12:24:12;;;;;;;5.37;4.83;;;13.80;48.10;;;;;;5054013;28;20418;-83
2021/10/07 12:26:54;;;;;;;5.60;4.67;;;13.90;49.60;;;;;;5053835;28;20922;-83
2021/10/07 12:29:27;;;;;;;5.70;5.30;;;14.00;48.40;;;;;;5053743;28;20426;-83
2021/10/07 12:32:02;;;;;;;4.63;4.10;;;14.00;48.20;;;;;;5053374;28;20449;-82
2021/10/07 12:34:35;;;;;;;4.60;4.30;;;14.00;48.40;;;;;;5053668;28;20519;-81
2021/10/07 12:37:02;;;;;;;4.50;4.20;;;14.10;47.80;;;;;;5053967;28;20418;-82
2021/10/07 12:39:46;;;;;;;6.17;5.10;;;14.20;47.40;;;;;;5053562;28;20823;-82
2021/10/07 12:42:13;;;;;;;5.10;4.70;;;14.30;48.20;;;;;;5053458;28;20410;-82
2021/10/07 12:44:43;;;;;;;6.43;4.67;;;14.30;46.80;;;;;;5053425;28;20429;-82
2021/10/07 12:47:15;;;;;;;4.50;4.20;;;14.30;47.40;;;;;;5053227;28;20422;-82
2021/10/07 12:49:51;;;;;;;6.00;5.10;;;14.30;47.50;;;;;;5053407;28;20419;-83
2021/10/07 12:52:20;;;;;;;6.30;5.80;;;14.40;48.00;;;;;;5053222;28;20759;-82
2021/10/07 12:55:08;;;;;;;5.30;4.70;;;14.40;47.60;;;;;;5053469;28;20450;-82
2021/10/07 12:57:47;;;;;;;5.90;5.23;;;14.30;48.10;;;;;;5053445;28;20517;-82